A- A+ FrançaisEnglishEspañol中国

Services sur Internet Soldes sur Internet Des idées de cadeaux Météo Météo aéro

La météo à : Autours de vous Tarbes-Lourdes-PyrénéesCalais-DunkerqueGraulhet-Montdragon Mont-De-Marsan

La météo aéronautique pour les pilotes, la préparation du vol avec les METAR (METeorological Aerodrome Report, message d'observation des conditions météorologiques pour l'aviation) et Les TAF (Terminal Aerodrome Forecast : message de prévision à court terme des conditions météorologiques pour l'aviation). Et les autres ressources comme les VAC (Visual Approch Chart) et les NOTAM (Notice To Airman) pour préprer les vols.

Aéroport Lossiemouth (Royaume-Uni) / OACI EGQS/ IATA LMO

L'altitude de l'aéroport Lossiemouth est de 13 m = 43 ft. Il est situé à proximité de Lossiemouth (Royaume-Uni). La météo générale à 5 jours est disponible pour Elgin situé à 6.1 km.

METAR de l'aéroport Lossiemouth - EGQS

EGQS 071850Z 21012KT CAVOK 11/08 Q0986 RMK BLU

Décodage du METAR de l'aéroport Lossiemouth (GB)

METAR émis par EGQS le samedi 7 décembre 2019 à 18:50 heure TU. Attention ce METAR est obsolète car il a été émis il y a 52 minutes.

La visibilité est de supérieure à 10 km = supérieure à 6.2 sm.

La température est de 11°C = 52 °F et le point rosée est de 8°C = 46 °F . Ce qui correspond à 82% d'humidité relative.

Le QNH est de 986 hPa = 29.12 inHg

Vent de 12 kt = 22 km/h, orienté à 210°.

Pas de nuages.

RMK BLU

TAF de l'aéroport Lossiemouth - EGQS

EGQS 071642Z 0718/0812 19015KT 9999 BKN045 PROB40 TEMPO 0718/0722 20022G34KT PROB30 TEMPO 0718/0803 6000 -RA SCT020 PROB40 TEMPO 0722/0803 23025G42KT BECMG 0723/0802 24018G28KT PROB40 TEMPO 0803/0812 25025G38KT 7000 -SHRA

EGQS 071642Z 0718/0812 19015KT 9999 couverture nuageuse fragmentée à 045 probabilité de 40% d'avoir temporairement 0718/0722 20022G34KT probabilité de 30% d'avoir temporairement 0718/0803 6000 faible RA nuages épars à 020 probabilité de 40% d'avoir temporairement 0722/0803 23025G42KT devenant 0723/0802 24018G28KT probabilité de 40% d'avoir temporairement 0803/0812 25025G38KT 7000 faible SHRA

Aéroport à proximité de Lossiemouth

Météo générale à 5 jours à Elgin (6.1 km)Aéroport Kinloss (15 km)Aéroport Inverness (46 km)Aéroport Wick (85 km)Aéroport Aberdeen (88 km)Aéroport Dundee (141 km)Aéroport Perth (141 km)

Vue aérienne de l'aéroport Lossiemouth

NOTAM de l'aéroport Lossiemouth

Les NOTAM sont fournis sans aucune garantie de leur actualité. Le pilote est le seul responsable de la vérification de sa validité avant de l'utiliser opérationnellement pour préparer un vol ou l'utiliser lors de sa navigation.

Pas de NOTAM

Sources des données